EGDR - Culdrose
Distance from station: E 5mi, 14km
Updated: 04/25/2018 2:50pm
Few Clouds
Few Clouds
 Wind from W
Wind: W 12 mph , 19 km/h
Temperature: 48°F , 9°C
Wind Chill: 43°F , 6°C
Dew Point: 43°F , 6°C
Humidity: 82%
Barometer: 30.06 inHg , 1018 hPa
Clouds: Few Clouds
Visibility: 6 miles , 10 km
Cloud details: Few Clouds 2200 ft
2018/04/25 21:50 EGDR 252150Z 27010KT 9999 FEW022 09/06 Q1018 BLU TEMPO 9999 -SHRA SCT020 WHT